Time;durP1;ratioP1;P1;durP2;ratioP2;P2;SDS_P1;SDS_P2;PMS_P1;PMS_P2;Temp;Humidity;BMP_temperature;BMP_pressure;BME280_temperature;BME280_humidity;BME280_pressure;Samples;Min_cycle;Max_cycle;Signal;HPM_P1;HPM_P2
2023/06/29 00:00:08;;;;;;;;;;;;;;;23.12;91.42;101542.25;5300793;28;19919;-67
2023/06/29 00:02:41;;;;;;;;;;;;;;;23.12;91.25;101543.06;5300979;28;20410;-67
2023/06/29 00:05:12;;;;;;;;;;;;;;;23.10;91.04;101541.59;5303601;28;20265;-67
2023/06/29 00:07:44;;;;;;;;;;;;;;;23.08;90.28;101531.13;5297857;28;19919;-67
2023/06/29 00:10:15;;;;;;;;;;;;;;;23.08;89.29;101523.09;5304008;28;19998;-67
2023/06/29 00:12:46;;;;;;;;;;;;;;;23.09;89.44;101526.59;5302447;28;20413;-68
2023/06/29 00:15:17;;;;;;;;;;;;;;;23.09;88.49;101515.91;5304240;28;19919;-66
2023/06/29 00:17:48;;;;;;;;;;;;;;;23.10;88.05;101520.22;5298216;28;19928;-67
2023/06/29 00:20:20;;;;;;;;;;;;;;;23.09;87.70;101507.88;5300147;27;20356;-67
2023/06/29 00:22:51;;;;;;;;;;;;;;;23.08;87.27;101514.25;5297775;28;19965;-66
2023/06/29 00:25:22;;;;;;;;;;;;;;;23.04;87.32;101509.31;5304819;28;20009;-68
2023/06/29 00:27:53;;;;;;;;;;;;;;;23.01;87.84;101512.34;5300939;28;19969;-68
2023/06/29 00:30:25;;;;;;;;;;;;;;;23.01;87.82;101503.53;5303437;28;19922;-68
2023/06/29 00:32:56;;;;;;;;;;;;;;;22.97;87.53;101505.75;5302272;28;20214;-67
2023/06/29 00:35:27;;;;;;;;;;;;;;;22.97;88.27;101502.25;5304467;28;19920;-67
2023/06/29 00:37:58;;;;;;;;;;;;;;;22.97;88.49;101503.09;5302603;28;20038;-68
2023/06/29 00:40:30;;;;;;;;;;;;;;;22.96;88.47;101505.97;5301647;28;19924;-67
2023/06/29 00:43:01;;;;;;;;;;;;;;;22.95;87.81;101504.28;5298449;28;19949;-68
2023/06/29 00:45:32;;;;;;;;;;;;;;;22.95;88.05;101502.44;5298972;28;19912;-66
2023/06/29 00:48:03;;;;;;;;;;;;;;;22.94;88.23;101498.13;5305049;28;20010;-66
2023/06/29 00:50:35;;;;;;;;;;;;;;;22.95;88.48;101499.75;5304918;28;20369;-66
2023/06/29 00:53:07;;;;;;;;;;;;;;;22.94;88.91;101506.13;5304199;28;19915;-67
2023/06/29 00:55:38;;;;;;;;;;;;;;;22.94;88.63;101498.13;5307185;28;20414;-67
2023/06/29 00:58:10;;;;;;;;;;;;;;;22.94;88.28;101490.09;5299946;28;19916;-67
2023/06/29 01:00:41;;;;;;;;;;;;;;;22.95;88.11;101490.94;5298477;28;20304;-67
2023/06/29 01:03:13;;;;;;;;;;;;;;;22.91;88.41;101479.81;5299917;28;20649;-66
2023/06/29 01:05:46;;;;;;;;;;;;;;;22.91;88.97;101482.47;5306360;28;19973;-67
2023/06/29 01:08:21;;;;;;;;;;;;;;;22.94;89.34;101483.94;5299854;28;19920;-67
2023/06/29 01:10:53;;;;;;;;;;;;;;;22.93;89.24;101488.47;5302383;28;19915;-66
2023/06/29 01:13:25;;;;;;;;;;;;;;;22.93;90.13;101487.66;5301064;28;19912;-66
2023/06/29 01:15:57;;;;;;;;;;;;;;;22.93;89.78;101491.13;5301725;28;20113;-67
2023/06/29 01:18:30;;;;;;;;;;;;;;;22.96;90.10;101490.75;5300963;28;20023;-67
2023/06/29 01:21:02;;;;;;;;;;;;;;;22.97;90.23;101480.88;5299824;28;20276;-67
2023/06/29 01:23:36;;;;;;;;;;;;;;;22.96;90.31;101482.72;5302519;28;19916;-67
2023/06/29 01:26:08;;;;;;;;;;;;;;;22.95;90.46;101477.56;5302483;28;19915;-67
2023/06/29 01:28:39;;;;;;;;;;;;;;;22.95;90.51;101474.91;5300705;28;20288;-68
2023/06/29 01:31:11;;;;;;;;;;;;;;;22.91;90.81;101474.47;5301708;28;20229;-67
2023/06/29 01:33:42;;;;;;;;;;;;;;;22.87;91.23;101470.50;5299462;28;19947;-67
2023/06/29 01:36:26;;;;;;;;;;;;;;;22.85;91.19;101471.75;5299828;28;19916;-67
2023/06/29 01:39:07;;;;;;;;;;;;;;;22.83;92.21;101469.25;5301341;28;19943;-67
2023/06/29 01:41:40;;;;;;;;;;;;;;;22.82;91.70;101467.59;5299142;27;19916;-66
2023/06/29 01:44:14;;;;;;;;;;;;;;;22.83;91.53;101462.06;5299205;28;19919;-67
2023/06/29 01:46:46;;;;;;;;;;;;;;;22.82;92.67;101463.09;5304078;28;19915;-67
2023/06/29 01:49:18;;;;;;;;;;;;;;;22.82;91.93;101460.41;5297420;28;19915;-67
2023/06/29 01:51:49;;;;;;;;;;;;;;;22.83;92.12;101454.03;5301911;28;20261;-67
2023/06/29 01:54:20;;;;;;;;;;;;;;;22.79;92.28;101454.63;5300067;28;19985;-67
2023/06/29 01:56:51;;;;;;;;;;;;;;;22.77;92.53;101457.50;5297058;28;20363;-67
2023/06/29 01:59:22;;;;;;;;;;;;;;;22.77;93.40;101459.34;5299813;28;19927;-66
2023/06/29 02:01:54;;;;;;;;;;;;;;;22.82;92.10;101457.72;5298131;28;19977;-67
2023/06/29 02:04:25;;;;;;;;;;;;;;;22.78;92.56;101461.81;5306370;28;19947;-68
2023/06/29 02:06:56;;;;;;;;;;;;;;;22.81;92.80;101449.94;5303818;28;19950;-67
2023/06/29 02:09:27;;;;;;;;;;;;;;;22.75;92.97;101451.53;5306377;28;19924;-67
2023/06/29 02:11:58;;;;;;;;;;;;;;;22.75;92.77;101445.34;5287781;28;19918;-68
2023/06/29 02:14:30;;;;;;;;;;;;;;;22.72;92.54;101445.75;5301470;28;19992;-68
2023/06/29 02:17:01;;;;;;;;;;;;;;;22.69;92.98;101443.47;5307486;28;19984;-67
2023/06/29 02:19:32;;;;;;;;;;;;;;;22.69;93.68;101441.63;5304945;28;20304;-68
2023/06/29 02:22:03;;;;;;;;;;;;;;;22.71;93.54;101444.94;5308044;28;19919;-69
2023/06/29 02:24:34;;;;;;;;;;;;;;;22.73;94.09;101448.25;5301165;28;19957;-68
2023/06/29 02:27:06;;;;;;;;;;;;;;;22.75;92.05;101440.84;5305094;28;19923;-67
2023/06/29 02:29:37;;;;;;;;;;;;;;;22.74;93.73;101441.88;5303097;28;19916;-66
2023/06/29 02:32:08;;;;;;;;;;;;;;;22.76;92.32;101441.66;5305693;28;19923;-67
2023/06/29 02:34:39;;;;;;;;;;;;;;;22.72;93.01;101437.72;5304198;28;19919;-68
2023/06/29 02:37:10;;;;;;;;;;;;;;;22.69;92.58;101436.28;5301733;28;20296;-66
2023/06/29 02:39:42;;;;;;;;;;;;;;;22.68;92.95;101431.94;5304465;28;19938;-67
2023/06/29 02:42:13;;;;;;;;;;;;;;;22.69;93.17;101427.44;5304494;28;20002;-66
2023/06/29 02:44:44;;;;;;;;;;;;;;;22.72;92.15;101430.53;5302592;28;20486;-67
2023/06/29 02:47:15;;;;;;;;;;;;;;;22.71;92.76;101433.41;5302616;28;20264;-67
2023/06/29 02:49:46;;;;;;;;;;;;;;;22.70;93.42;101429.09;5305385;28;19988;-66
2023/06/29 02:52:17;;;;;;;;;;;;;;;22.69;93.69;101422.09;5302930;28;19959;-67
2023/06/29 02:54:49;;;;;;;;;;;;;;;22.69;94.77;101425.63;5304444;28;19912;-65
2023/06/29 02:57:20;;;;;;;;;;;;;;;22.70;94.46;101423.75;5306293;28;19923;-67
2023/06/29 02:59:51;;;;;;;;;;;;;;;22.72;94.97;101419.84;5302610;28;20006;-65
2023/06/29 03:02:22;;;;;;;;;;;;;;;22.71;93.75;101422.72;5304217;28;19912;-66
2023/06/29 03:04:53;;;;;;;;;;;;;;;22.66;93.04;101426.00;5304616;28;19920;-67
2023/06/29 03:07:24;;;;;;;;;;;;;;;22.71;93.68;101420.88;5302953;28;19911;-67
2023/06/29 03:09:56;;;;;;;;;;;;;;;22.67;96.08;101418.81;5302586;28;20036;-66
2023/06/29 03:12:27;;;;;;;;;;;;;;;22.69;95.51;101422.09;5306623;28;19920;-67
2023/06/29 03:14:58;;;;;;;;;;;;;;;22.69;95.15;101417.59;5301912;28;19974;-66
2023/06/29 03:17:30;;;;;;;;;;;;;;;22.69;94.98;101417.59;5303764;28;19923;-66
2023/06/29 03:20:01;;;;;;;;;;;;;;;22.72;95.14;101416.34;5301507;28;20372;-66
2023/06/29 03:22:32;;;;;;;;;;;;;;;22.73;94.84;101415.34;5307891;28;20289;-67
2023/06/29 03:25:04;;;;;;;;;;;;;;;22.73;94.94;101410.00;5298831;28;19916;-67
2023/06/29 03:27:35;;;;;;;;;;;;;;;22.72;95.23;101419.03;5301253;28;19920;-67
2023/06/29 03:30:06;;;;;;;;;;;;;;;22.59;93.42;101399.25;5302865;28;19912;-67
2023/06/29 03:32:37;;;;;;;;;;;;;;;22.64;94.53;101411.19;5305160;28;19920;-67
2023/06/29 03:35:09;;;;;;;;;;;;;;;22.63;95.32;101409.53;5305208;28;19966;-66
2023/06/29 03:37:40;;;;;;;;;;;;;;;22.64;96.60;101403.16;5305374;28;19920;-66
2023/06/29 03:40:11;;;;;;;;;;;;;;;22.59;97.96;101411.78;5304971;28;19920;-67
2023/06/29 03:42:42;;;;;;;;;;;;;;;22.54;99.32;101404.34;5303526;28;19912;-67
2023/06/29 03:45:14;;;;;;;;;;;;;;;22.52;99.16;101402.88;5302688;28;19916;-67
2023/06/29 03:47:45;;;;;;;;;;;;;;;22.52;99.18;101410.91;5303973;28;20006;-66
2023/06/29 03:50:16;;;;;;;;;;;;;;;22.50;100.00;101405.75;5301854;28;19966;-67
2023/06/29 03:52:48;;;;;;;;;;;;;;;22.53;99.34;101405.34;5302455;28;19915;-68
2023/06/29 03:55:19;;;;;;;;;;;;;;;22.56;100.00;101410.31;5302616;28;19943;-67
2023/06/29 03:57:50;;;;;;;;;;;;;;;22.58;100.00;101394.94;5304319;28;20391;-68
2023/06/29 04:00:22;;;;;;;;;;;;;;;22.57;100.00;101393.25;5301877;28;19926;-67
2023/06/29 04:02:53;;;;;;;;;;;;;;;22.61;98.57;101398.22;5303058;28;19919;-67
2023/06/29 04:05:27;;;;;;;;;;;;;;;22.50;100.00;101384.41;5299525;28;20276;-67
2023/06/29 04:07:59;;;;;;;;;;;;;;;22.50;100.00;101387.06;5302883;28;19920;-66
2023/06/29 04:10:32;;;;;;;;;;;;;;;22.56;100.00;101388.13;5298334;28;19920;-66
2023/06/29 04:13:03;;;;;;;;;;;;;;;22.56;100.00;101386.28;5303883;28;20030;-67
2023/06/29 04:15:34;;;;;;;;;;;;;;;22.56;100.00;101378.25;5279892;28;19920;-67
2023/06/29 04:18:05;;;;;;;;;;;;;;;22.54;100.00;101379.47;5303775;28;19920;-67
2023/06/29 04:20:36;;;;;;;;;;;;;;;22.52;100.00;101387.69;5299660;28;19915;-66
2023/06/29 04:23:11;;;;;;;;;;;;;;;22.53;100.00;101380.50;5302230;28;19916;-67
2023/06/29 04:25:42;;;;;;;;;;;;;;;22.56;100.00;101388.94;5298456;27;19963;-66
2023/06/29 04:28:13;;;;;;;;;;;;;;;22.57;100.00;101385.25;5301377;28;20023;-67
2023/06/29 04:30:45;;;;;;;;;;;;;;;22.64;100.00;101382.63;5304617;28;20605;-67
2023/06/29 04:33:16;;;;;;;;;;;;;;;22.65;100.00;101378.09;5306942;28;19922;-67
2023/06/29 04:35:48;;;;;;;;;;;;;;;22.65;100.00;101378.09;5295950;28;19919;-66
2023/06/29 04:38:27;;;;;;;;;;;;;;;22.64;100.00;101382.63;5300059;28;19923;-66
2023/06/29 04:41:04;;;;;;;;;;;;;;;22.67;100.00;101376.06;5304068;28;20495;-66
2023/06/29 04:43:36;;;;;;;;;;;;;;;22.70;100.00;101378.34;5300818;28;19918;-67
2023/06/29 04:46:07;;;;;;;;;;;;;;;22.68;100.00;101372.38;5303126;28;19915;-70
2023/06/29 04:48:39;;;;;;;;;;;;;;;22.64;100.00;101376.47;5300563;28;19912;-67
2023/06/29 04:51:12;;;;;;;;;;;;;;;22.64;100.00;101379.13;5301384;28;19932;-67
2023/06/29 04:53:44;;;;;;;;;;;;;;;22.65;100.00;101378.91;5300637;28;19955;-67
2023/06/29 04:56:15;;;;;;;;;;;;;;;22.65;100.00;101378.09;5306021;28;20029;-67
2023/06/29 04:58:46;;;;;;;;;;;;;;;22.65;100.00;101370.09;5300453;28;19912;-65
2023/06/29 05:01:17;;;;;;;;;;;;;;;22.69;100.00;101371.34;5304752;28;19915;-66
2023/06/29 05:03:49;;;;;;;;;;;;;;;22.68;100.00;101380.38;5296859;28;19912;-67
2023/06/29 05:06:20;;;;;;;;;;;;;;;22.68;100.00;101375.03;5298858;28;19926;-66
2023/06/29 05:08:51;;;;;;;;;;;;;;;22.69;100.00;101377.53;5298733;28;19977;-66
2023/06/29 05:11:22;;;;;;;;;;;;;;;22.72;100.00;101377.13;5302390;28;19998;-65
2023/06/29 05:13:54;;;;;;;;;;;;;;;22.75;100.00;101371.38;5300401;28;19920;-68
2023/06/29 05:16:25;;;;;;;;;;;;;;;22.77;100.00;101379.22;5304966;28;19927;-67
2023/06/29 05:18:56;;;;;;;;;;;;;;;22.74;100.00;101368.91;5299319;28;19915;-67
2023/06/29 05:21:28;;;;;;;;;;;;;;;22.81;100.00;101373.28;5298644;28;20372;-66
2023/06/29 05:23:59;;;;;;;;;;;;;;;22.81;100.00;101369.78;5300070;28;19916;-67
2023/06/29 05:26:31;;;;;;;;;;;;;;;22.82;100.00;101371.44;5295937;28;20317;-66
2023/06/29 05:29:03;;;;;;;;;;;;;;;22.78;100.00;101375.50;5304219;28;19911;-67
2023/06/29 05:31:34;;;;;;;;;;;;;;;22.81;100.00;101364.44;5301152;28;20114;-65
2023/06/29 05:34:05;;;;;;;;;;;;;;;22.81;100.00;101365.25;5297822;28;20008;-67
2023/06/29 05:36:36;;;;;;;;;;;;;;;22.81;100.00;101365.25;5293972;28;19919;-67
2023/06/29 05:39:07;;;;;;;;;;;;;;;22.85;100.00;101359.53;5305133;28;19923;-67
2023/06/29 05:41:39;;;;;;;;;;;;;;;22.88;100.00;101365.31;5300085;28;19986;-67
2023/06/29 05:44:10;;;;;;;;;;;;;;;22.92;100.00;101368.41;5305753;28;20007;-67
2023/06/29 05:46:41;;;;;;;;;;;;;;;22.96;100.00;101367.00;5303807;28;20020;-68
2023/06/29 05:49:12;;;;;;;;;;;;;;;22.98;100.00;101365.75;5308611;28;19984;-67
2023/06/29 05:51:43;;;;;;;;;;;;;;;22.97;100.00;101357.97;5305466;28;19911;-67
2023/06/29 05:54:15;;;;;;;;;;;;;;;23.00;100.00;101362.91;5305938;28;19926;-67
2023/06/29 05:56:46;;;;;;;;;;;;;;;23.04;100.00;101367.66;5302903;28;19920;-67
2023/06/29 05:59:17;;;;;;;;;;;;;;;23.01;100.00;101368.03;5302462;28;19911;-66
2023/06/29 06:01:49;;;;;;;;;;;;;;;23.04;100.00;101370.31;5304741;28;19916;-67
2023/06/29 06:04:20;;;;;;;;;;;;;;;23.08;100.00;101364.59;5300449;28;19920;-68
2023/06/29 06:06:51;;;;;;;;;;;;;;;23.11;99.35;101366.84;5300516;28;20317;-67
2023/06/29 06:09:22;;;;;;;;;;;;;;;23.15;99.16;101365.44;5305783;28;20845;-67
2023/06/29 06:11:54;;;;;;;;;;;;;;;23.20;99.05;101365.66;5305048;28;19923;-67
2023/06/29 06:14:26;;;;;;;;;;;;;;;23.32;97.39;101361.38;5310362;28;19918;-68
2023/06/29 06:16:57;;;;;;;;;;;;;;;23.33;96.08;101357.66;5302274;28;20245;-68
2023/06/29 06:19:28;;;;;;;;;;;;;;;23.43;95.23;101357.28;5309560;28;20292;-67
2023/06/29 06:21:59;;;;;;;;;;;;;;;23.44;95.03;101364.28;5303224;28;19976;-67
2023/06/29 06:24:30;;;;;;;;;;;;;;;23.53;95.05;101358.53;5295758;28;19915;-67
2023/06/29 06:27:02;;;;;;;;;;;;;;;23.60;92.34;101357.72;5308534;28;19951;-67
2023/06/29 06:29:33;;;;;;;;;;;;;;;23.71;91.93;101360.63;5304473;28;20373;-67
2023/06/29 06:32:05;;;;;;;;;;;;;;;23.72;91.01;101361.47;5301038;28;19947;-67
2023/06/29 06:34:37;;;;;;;;;;;;;;;23.78;90.40;101358.78;5301817;28;19915;-67
2023/06/29 06:37:08;;;;;;;;;;;;;;;23.83;89.26;101358.19;5305137;28;19920;-66
2023/06/29 06:39:39;;;;;;;;;;;;;;;23.89;89.65;101356.53;5303433;27;19919;-67
2023/06/29 06:42:10;;;;;;;;;;;;;;;23.96;89.22;101357.38;5307202;28;19957;-68
2023/06/29 06:44:48;;;;;;;;;;;;;;;24.03;87.53;101352.84;5281635;28;19998;-66
2023/06/29 06:47:20;;;;;;;;;;;;;;;24.10;86.10;101350.16;5301831;28;19915;-66
2023/06/29 06:49:51;;;;;;;;;;;;;;;24.13;85.89;101352.41;5305409;28;19921;-65
2023/06/29 06:52:22;;;;;;;;;;;;;;;24.19;84.39;101351.59;5308265;28;19912;-66
2023/06/29 06:54:55;;;;;;;;;;;;;;;24.23;84.59;101350.97;5305194;28;20003;-67
2023/06/29 06:57:27;;;;;;;;;;;;;;;24.23;85.43;101345.59;5302101;28;19920;-68
2023/06/29 06:59:58;;;;;;;;;;;;;;;24.43;82.42;101353.63;5305781;28;19968;-67
2023/06/29 07:02:29;;;;;;;;;;;;;;;24.55;82.70;101340.44;5307142;28;19911;-67
2023/06/29 07:05:00;;;;;;;;;;;;;;;24.64;76.54;101347.19;5309516;28;19920;-68
2023/06/29 07:07:31;;;;;;;;;;;;;;;24.69;76.60;101351.91;5302500;28;19938;-67
2023/06/29 07:10:03;;;;;;;;;;;;;;;24.73;77.06;101350.47;5307695;28;20037;-67
2023/06/29 07:12:34;;;;;;;;;;;;;;;24.84;74.67;101351.66;5305162;28;20076;-67
2023/06/29 07:15:06;;;;;;;;;;;;;;;24.88;72.25;101351.03;5304431;28;20010;-67
2023/06/29 07:17:37;;;;;;;;;;;;;;;25.10;74.84;101354.25;5300471;28;19931;-67
2023/06/29 07:20:09;;;;;;;;;;;;;;;25.17;75.29;101347.00;5302111;28;20668;-68
2023/06/29 07:22:40;;;;;;;;;;;;;;;25.27;74.83;101343.88;5307917;28;19912;-68
2023/06/29 07:25:11;;;;;;;;;;;;;;;25.47;69.50;101354.47;5302168;28;20322;-67
2023/06/29 07:27:42;;;;;;;;;;;;;;;25.46;66.05;101350.97;5306302;28;19922;-68
2023/06/29 07:30:13;;;;;;;;;;;;;;;25.53;68.66;101344.72;5300268;28;19920;-67
2023/06/29 07:32:45;;;;;;;;;;;;;;;25.46;62.87;101347.47;5300895;28;20006;-67
2023/06/29 07:35:16;;;;;;;;;;;;;;;25.51;63.15;101355.69;5306254;27;20281;-67
2023/06/29 07:37:48;;;;;;;;;;;;;;;25.57;64.72;101346.78;5305186;28;19916;-68
2023/06/29 07:40:19;;;;;;;;;;;;;;;25.57;66.18;101344.09;5302691;28;19908;-67
2023/06/29 07:42:51;;;;;;;;;;;;;;;25.63;63.06;101345.88;5305970;28;19920;-68
2023/06/29 07:45:22;;;;;;;;;;;;;;;25.77;60.91;101348.50;5300474;28;19915;-67
2023/06/29 07:47:53;;;;;;;;;;;;;;;25.82;64.37;101337.94;5306696;28;19916;-66
2023/06/29 07:50:25;;;;;;;;;;;;;;;25.93;62.67;101343.41;5304700;28;19923;-67
2023/06/29 07:52:56;;;;;;;;;;;;;;;26.03;60.89;101340.25;5308066;28;19922;-68
2023/06/29 07:55:27;;;;;;;;;;;;;;;26.13;64.63;101342.41;5300901;28;20003;-68
2023/06/29 07:57:58;;;;;;;;;;;;;;;26.16;61.68;101339.28;5301631;28;19912;-66
2023/06/29 08:00:29;;;;;;;;;;;;;;;26.15;59.84;101343.03;5305483;28;19915;-68
2023/06/29 08:03:00;;;;;;;;;;;;;;;26.14;61.15;101349.44;5303244;27;19916;-67
2023/06/29 08:05:32;;;;;;;;;;;;;;;26.12;58.69;101338.09;5299642;28;20381;-66
2023/06/29 08:08:03;;;;;;;;;;;;;;;26.07;57.91;101340.63;5303752;28;20297;-68
2023/06/29 08:10:35;;;;;;;;;;;;;;;26.02;58.17;101343.94;5300273;28;19927;-68
2023/06/29 08:13:06;;;;;;;;;;;;;;;25.98;60.12;101329.31;5304097;28;20273;-66
2023/06/29 08:15:37;;;;;;;;;;;;;;;26.03;63.04;101332.19;5304440;28;19981;-66
2023/06/29 08:18:08;;;;;;;;;;;;;;;26.06;61.24;101326.34;5306705;28;19908;-67
2023/06/29 08:20:39;;;;;;;;;;;;;;;26.14;60.56;101333.34;5303441;28;19920;-67
2023/06/29 08:23:11;;;;;;;;;;;;;;;26.14;61.40;101328.78;5301395;28;19908;-66
2023/06/29 08:25:42;;;;;;;;;;;;;;;26.32;61.57;101329.81;5302179;28;19943;-68
2023/06/29 08:28:13;;;;;;;;;;;;;;;26.40;61.90;101335.75;5305011;27;19960;-68
2023/06/29 08:30:44;;;;;;;;;;;;;;;26.43;60.34;101337.97;5299669;28;20258;-67
2023/06/29 08:33:15;;;;;;;;;;;;;;;26.39;55.63;101344.84;5307044;28;19911;-66
2023/06/29 08:35:47;;;;;;;;;;;;;;;26.38;56.30;101340.50;5305688;28;19927;-69
2023/06/29 08:38:18;;;;;;;;;;;;;;;26.38;60.05;101343.19;5301972;28;19947;-68
2023/06/29 08:40:49;;;;;;;;;;;;;;;26.39;59.06;101336.78;5298803;28;20169;-68
2023/06/29 08:43:21;;;;;;;;;;;;;;;26.45;58.88;101335.06;5307102;28;19939;-65
2023/06/29 08:45:52;;;;;;;;;;;;;;;26.56;60.17;101338.91;5306133;28;20430;-67
2023/06/29 08:48:24;;;;;;;;;;;;;;;26.72;57.35;101337.50;5298816;28;20273;-68
2023/06/29 08:51:02;;;;;;;;;;;;;;;26.83;58.05;101332.19;5299950;28;19915;-68
2023/06/29 08:53:34;;;;;;;;;;;;;;;26.93;57.68;101332.47;5306788;28;19954;-68
2023/06/29 08:56:06;;;;;;;;;;;;;;;27.03;54.62;101328.41;5301887;28;20425;-69
2023/06/29 08:58:38;;;;;;;;;;;;;;;27.06;54.84;101326.06;5282447;28;20290;-66
2023/06/29 09:01:09;;;;;;;;;;;;;;;27.19;54.39;101322.41;5285235;28;19921;-68
2023/06/29 09:03:40;;;;;;;;;;;;;;;27.36;54.85;101326.09;5294630;28;20417;-68
2023/06/29 09:06:14;;;;;;;;;;;;;;;27.48;52.53;101315.34;5295865;28;20003;-67
2023/06/29 09:08:45;;;;;;;;;;;;;;;27.56;56.96;101322.28;5294857;28;19923;-65
2023/06/29 09:11:16;;;;;;;;;;;;;;;27.61;52.94;101312.44;5270775;28;20329;-68
2023/06/29 09:13:49;;;;;;;;;;;;;;;27.56;51.21;101316.91;5298830;28;19951;-67
2023/06/29 09:16:28;;;;;;;;;;;;;;;27.53;54.74;101322.72;5290498;28;19930;-65
2023/06/29 09:18:59;;;;;;;;;;;;;;;27.47;50.42;101324.50;5294566;28;19915;-68
2023/06/29 09:21:31;;;;;;;;;;;;;;;27.41;54.06;101323.53;5293503;28;20278;-68
2023/06/29 09:24:02;;;;;;;;;;;;;;;27.38;55.20;101325.84;5299247;27;19916;-66
2023/06/29 09:26:34;;;;;;;;;;;;;;;27.38;55.12;101317.78;5294884;28;19920;-68
2023/06/29 09:29:05;;;;;;;;;;;;;;;27.39;51.67;101319.44;5290923;28;19920;-68
2023/06/29 09:31:36;;;;;;;;;;;;;;;27.38;54.78;101317.78;5294782;28;20014;-65
2023/06/29 09:34:17;;;;;;;;;;;;;;;27.42;54.82;101322.47;5296568;28;19962;-68
2023/06/29 09:36:48;;;;;;;;;;;;;;;27.48;55.12;101323.44;5290581;28;19919;-68
2023/06/29 09:39:20;;;;;;;;;;;;;;;27.46;51.65;101320.13;5300041;28;19942;-69
2023/06/29 09:41:53;;;;;;;;;;;;;;;27.44;54.90;101324.13;5300173;28;19916;-68
2023/06/29 09:44:25;;;;;;;;;;;;;;;27.45;55.15;101323.88;5298088;28;19912;-68
2023/06/29 09:47:03;;;;;;;;;;;;;;;27.44;53.42;101327.63;5295533;28;19958;-67
2023/06/29 09:49:52;;;;;;;;;;;;;;;27.46;54.59;101327.41;5304099;28;19998;-67
2023/06/29 09:52:24;;;;;;;;;;;;;;;27.46;53.15;101325.53;5295566;27;19916;-67
2023/06/29 09:54:58;;;;;;;;;;;;;;;27.47;53.88;101324.50;5299014;28;19927;-65
2023/06/29 09:57:29;;;;;;;;;;;;;;;27.50;52.88;101323.19;5295313;28;19920;-67
2023/06/29 10:00:01;;;;;;;;;;;;;;;27.52;52.86;101324.59;5297704;28;19915;-68
2023/06/29 10:02:32;;;;;;;;;;;;;;;27.57;53.43;101322.03;5297283;28;19915;-68
2023/06/29 10:05:03;;;;;;;;;;;;;;;27.63;51.77;101317.63;5300109;28;20398;-68
2023/06/29 10:07:36;;;;;;;;;;;;;;;27.58;50.06;101318.31;5306658;22;20343;-67
2023/06/29 10:10:10;;;;;;;;;;;;;;;27.59;49.34;101316.44;5232356;28;19917;-68
2023/06/29 10:12:41;;;;;;;;;;;;;;;27.69;53.73;101318.53;5236003;28;20003;-67
2023/06/29 10:15:13;;;;;;;;;;;;;;;27.74;51.79;101322.22;5231388;28;19913;-67
2023/06/29 10:18:07;;;;;;;;;;;;;;;27.77;52.33;101319.06;5221450;28;19917;-67
2023/06/29 10:20:43;;;;;;;;;;;;;;;27.68;50.10;101323.09;5207887;28;20707;-67
2023/06/29 10:23:15;;;;;;;;;;;;;;;27.62;49.91;101316.78;5207367;28;20004;-68
2023/06/29 10:25:48;;;;;;;;;;;;;;;27.62;51.36;101316.78;5210354;28;19934;-68
2023/06/29 10:28:20;;;;;;;;;;;;;;;27.68;51.65;101319.59;5211878;28;20369;-67
2023/06/29 10:30:56;;;;;;;;;;;;;;;27.59;49.52;101319.13;5210216;28;20344;-67
2023/06/29 10:33:28;;;;;;;;;;;;;;;27.50;48.87;101320.50;5209343;28;19920;-67
2023/06/29 10:36:01;;;;;;;;;;;;;;;27.41;52.21;101328.09;5209203;28;19922;-68
2023/06/29 10:38:33;;;;;;;;;;;;;;;27.38;50.35;101323.97;5210061;28;19917;-67
2023/06/29 10:41:06;;;;;;;;;;;;;;;27.40;51.93;101324.59;5277077;28;19956;-68
2023/06/29 10:43:56;;;;;;;;;;;;;;;27.38;51.09;101329.34;5209111;28;19918;-67
2023/06/29 10:47:00;;;;;;;;;;;;;;;27.42;51.45;101321.66;5210363;28;20004;-68
2023/06/29 10:49:31;;;;;;;;;;;;;;;27.48;51.50;101325.31;5204835;28;19921;-68
2023/06/29 10:52:04;;;;;;;;;;;;;;;27.48;50.33;101317.22;5209906;28;19925;-67
2023/06/29 10:54:35;;;;;;;;;;;;;;;27.44;52.96;101316.06;5209629;28;19921;-68
2023/06/29 10:57:10;;;;;;;;;;;;;;;27.47;52.27;101310.22;5212049;28;20438;-67
2023/06/29 10:59:41;;;;;;;;;;;;;;;27.54;53.23;101310.91;5210069;28;19909;-67
2023/06/29 11:02:13;;;;;;;;;;;;;;;27.58;51.86;101306.72;5208571;28;19924;-67
2023/06/29 11:04:44;;;;;;;;;;;;;;;27.59;52.34;101314.56;5211010;28;19917;-68
2023/06/29 11:07:15;;;;;;;;;;;;;;;27.57;52.68;101315.84;5211975;28;19921;-67
2023/06/29 11:09:46;;;;;;;;;;;;;;;27.64;52.62;101316.56;5211244;28;19992;-67
2023/06/29 11:12:18;;;;;;;;;;;;;;;27.67;52.20;101309.91;5208017;28;19917;-67
2023/06/29 11:14:50;;;;;;;;;;;;;;;27.67;52.48;101307.19;5278825;28;20239;-67
2023/06/29 11:17:25;;;;;;;;;;;;;;;27.76;51.83;101316.59;5278118;28;19943;-67
2023/06/29 11:19:57;;;;;;;;;;;;;;;27.74;51.90;101306.06;5210488;28;19924;-67
2023/06/29 11:22:28;;;;;;;;;;;;;;;27.77;51.36;101308.31;5210826;28;19917;-67
2023/06/29 11:25:00;;;;;;;;;;;;;;;27.82;51.81;101299.53;5210641;28;19920;-68
2023/06/29 11:27:31;;;;;;;;;;;;;;;27.88;50.82;101303.94;5209508;28;20369;-68
2023/06/29 11:30:05;;;;;;;;;;;;;;;27.88;49.93;101302.09;5205421;28;20140;-67
2023/06/29 11:32:36;;;;;;;;;;;;;;;27.89;48.90;101302.91;5208083;28;19921;-68
2023/06/29 11:35:11;;;;;;;;;;;;;;;27.89;47.01;101295.66;5209616;28;19917;-67
2023/06/29 11:37:42;;;;;;;;;;;;;;;27.89;48.32;101297.53;5209284;28;19921;-67
2023/06/29 11:40:20;;;;;;;;;;;;;;;27.88;47.02;101290.47;5209558;28;19921;-67
2023/06/29 11:42:53;;;;;;;;;;;;;;;27.92;48.59;101288.16;5209296;28;20377;-67
2023/06/29 11:45:24;;;;;;;;;;;;;;;28.05;48.27;101283.34;5211297;28;19929;-67
2023/06/29 11:47:56;;;;;;;;;;;;;;;28.20;49.51;101282.06;5209845;28;20373;-67
2023/06/29 11:50:30;;;;;;;;;;;;;;;28.32;48.56;101280.97;5208862;28;19917;-67
2023/06/29 11:53:01;;;;;;;;;;;;;;;28.46;47.23;101267.25;5205233;28;20392;-68
2023/06/29 11:55:32;;;;;;;;;;;;;;;28.64;47.37;101272.50;5212643;28;19914;-67
2023/06/29 11:58:03;;;;;;;;;;;;;;;28.74;47.28;101274.53;5209715;28;20305;-67
2023/06/29 12:00:35;;;;;;;;;;;;;;;28.84;47.59;101270.16;5209455;28;19913;-68
2023/06/29 12:03:07;;;;;;;;;;;;;;;28.96;47.45;101264.72;5209836;28;19917;-67
2023/06/29 12:05:39;;;;;;;;;;;;;;;29.16;47.49;101266.16;5210481;28;19974;-68
2023/06/29 12:08:10;;;;;;;;;;;;;;;29.34;46.52;101261.34;5207389;28;19964;-68
2023/06/29 12:10:41;;;;;;;;;;;;;;;29.42;46.29;101251.22;5209698;28;20404;-67
2023/06/29 12:13:12;;;;;;;;;;;;;;;29.41;44.99;101250.41;5209799;28;19909;-67
2023/06/29 12:15:44;;;;;;;;;;;;;;;29.41;45.42;101261.19;5209795;28;19914;-67
2023/06/29 12:18:15;;;;;;;;;;;;;;;29.41;43.68;101252.28;5209015;28;19921;-67
2023/06/29 12:20:47;;;;;;;;;;;;;;;29.51;45.77;101247.03;5209164;28;19922;-68
2023/06/29 12:23:18;;;;;;;;;;;;;;;29.51;45.52;101239.78;5198843;28;20539;-67
2023/06/29 12:25:52;;;;;;;;;;;;;;;29.57;46.31;101241.50;5197345;28;20265;-68
2023/06/29 12:28:24;;;;;;;;;;;;;;;29.56;46.25;101237.13;5264182;28;19909;-67
2023/06/29 12:30:55;;;;;;;;;;;;;;;29.59;44.32;101241.28;5209299;28;20416;-67
2023/06/29 12:33:26;;;;;;;;;;;;;;;29.68;45.20;101237.06;5210037;28;19917;-67
2023/06/29 12:35:58;;;;;;;;;;;;;;;29.74;44.55;101237.97;5207738;28;20353;-68
2023/06/29 12:38:29;;;;;;;;;;;;;;;29.69;42.13;101246.81;5276756;28;19917;-67
2023/06/29 12:41:00;;;;;;;;;;;;;;;29.57;43.14;101244.19;5208141;28;19961;-69
2023/06/29 12:43:31;;;;;;;;;;;;;;;29.60;43.70;101245.59;5210560;28;19925;-67
2023/06/29 12:46:02;;;;;;;;;;;;;;;29.61;43.19;101243.72;5208708;28;20310;-68
2023/06/29 12:48:33;;;;;;;;;;;;;;;29.65;43.20;101242.97;5208418;28;19936;-68
2023/06/29 12:51:05;;;;;;;;;;;;;;;29.67;42.75;101230.03;5209064;28;20393;-67
2023/06/29 12:53:38;;;;;;;;;;;;;;;29.70;42.73;101245.75;5207789;28;19917;-68
2023/06/29 12:56:09;;;;;;;;;;;;;;;29.75;43.15;101235.03;5210484;28;19921;-67
2023/06/29 12:58:40;;;;;;;;;;;;;;;29.76;42.76;101242.03;5208069;28;19910;-68